createdAt,value
2019-01-13T00:01:46.263Z,1.55
2019-01-13T00:04:15.232Z,1.55
2019-01-13T00:06:43.874Z,1.56
2019-01-13T00:09:12.958Z,1.56
2019-01-13T00:11:41.666Z,1.60
2019-01-13T00:14:10.296Z,1.62
2019-01-13T00:16:39.202Z,1.59
2019-01-13T00:19:07.844Z,1.62
2019-01-13T00:21:36.488Z,1.59
2019-01-13T00:24:05.127Z,1.58
2019-01-13T00:26:33.756Z,1.60
2019-01-13T00:29:02.644Z,1.63
2019-01-13T00:31:32.297Z,1.64
2019-01-13T00:34:02.094Z,1.62
2019-01-13T00:36:30.945Z,1.68
2019-01-13T00:38:59.649Z,1.63
2019-01-13T00:41:28.279Z,1.64
2019-01-13T00:43:56.933Z,1.59
2019-01-13T00:46:25.655Z,1.62
2019-01-13T00:48:54.593Z,1.61
2019-01-13T00:51:23.261Z,1.54
2019-01-13T00:53:51.915Z,1.55
2019-01-13T00:56:20.626Z,1.58
2019-01-13T00:58:49.602Z,1.58
2019-01-13T01:01:18.343Z,1.58
2019-01-13T01:03:46.998Z,1.56
2019-01-13T01:06:16.012Z,1.59
2019-01-13T01:08:44.727Z,1.59
2019-01-13T01:11:13.530Z,1.58
2019-01-13T01:13:42.170Z,1.53
2019-01-13T01:16:10.902Z,1.49
2019-01-13T01:18:39.536Z,1.47
2019-01-13T01:21:08.166Z,1.37
2019-01-13T01:23:37.208Z,1.31
2019-01-13T01:26:05.848Z,1.24
2019-01-13T01:28:34.556Z,1.26
2019-01-13T01:31:03.208Z,1.24
2019-01-13T01:33:31.859Z,1.29
2019-01-13T01:36:00.567Z,1.36
2019-01-13T01:38:29.211Z,1.34
2019-01-13T01:40:59.463Z,1.38
2019-01-13T01:43:28.107Z,1.40
2019-01-13T01:45:56.829Z,1.42
2019-01-13T01:48:25.463Z,1.40
2019-01-13T01:50:54.113Z,1.47
2019-01-13T01:53:22.839Z,1.47
2019-01-13T01:55:51.483Z,1.45
2019-01-13T01:58:20.191Z,1.49
2019-01-13T02:00:48.826Z,1.49
2019-01-13T02:03:17.455Z,1.49
2019-01-13T02:05:46.108Z,1.50
2019-01-13T02:08:14.763Z,1.52
2019-01-13T02:10:43.397Z,1.52
2019-01-13T02:13:12.020Z,1.48
2019-01-13T02:15:40.674Z,1.47
2019-01-13T02:18:09.388Z,1.49
2019-01-13T02:20:38.096Z,1.37
2019-01-13T02:23:06.808Z,1.43
2019-01-13T02:25:35.522Z,1.48
2019-01-13T02:28:04.274Z,1.43
2019-01-13T02:30:32.927Z,1.45
2019-01-13T02:33:01.555Z,1.50
2019-01-13T02:35:30.192Z,1.50
2019-01-13T02:37:58.837Z,1.52
2019-01-13T02:40:27.479Z,1.61
2019-01-13T02:42:56.112Z,1.64
2019-01-13T02:45:26.085Z,1.66
2019-01-13T02:47:54.711Z,1.62
2019-01-13T02:50:23.412Z,1.66
2019-01-13T02:52:52.241Z,1.71
2019-01-13T02:55:20.963Z,1.66
2019-01-13T02:57:49.660Z,1.73
2019-01-13T03:00:19.593Z,1.76
2019-01-13T03:02:48.291Z,1.69
2019-01-13T03:05:16.941Z,1.73
2019-01-13T03:07:45.662Z,1.73
2019-01-13T03:10:18.113Z,1.78
2019-01-13T03:12:46.831Z,1.78
2019-01-13T03:15:19.581Z,1.83
2019-01-13T03:17:46.984Z,1.78
2019-01-13T03:20:15.703Z,1.74
2019-01-13T03:22:45.478Z,1.77
2019-01-13T03:25:15.375Z,1.76
2019-01-13T03:27:44.008Z,1.75
2019-01-13T03:30:14.370Z,1.72
2019-01-13T03:32:43.269Z,1.73
2019-01-13T03:35:11.984Z,1.72
2019-01-13T03:37:40.682Z,1.71
2019-01-13T03:40:11.062Z,1.70
2019-01-13T03:42:39.687Z,1.71
2019-01-13T03:45:09.535Z,1.69
2019-01-13T03:47:38.185Z,1.75
2019-01-13T03:50:07.840Z,1.75
2019-01-13T03:52:36.468Z,1.77
2019-01-13T03:55:05.187Z,1.78
2019-01-13T03:57:33.814Z,1.79
2019-01-13T04:00:03.625Z,1.77
2019-01-13T04:02:32.509Z,1.81
2019-01-13T04:05:01.144Z,1.75
2019-01-13T04:07:29.859Z,1.80
2019-01-13T04:09:58.499Z,1.83
2019-01-13T04:12:27.135Z,1.79
2019-01-13T04:14:55.764Z,1.84
2019-01-13T04:17:25.047Z,1.81
2019-01-13T04:19:53.755Z,1.85
2019-01-13T04:22:22.392Z,1.82
2019-01-13T04:24:51.039Z,1.85
2019-01-13T04:27:20.032Z,1.90
2019-01-13T04:29:48.664Z,1.83
2019-01-13T04:32:17.614Z,1.91
2019-01-13T04:34:46.332Z,1.93
2019-01-13T04:37:14.955Z,1.95
2019-01-13T04:39:43.611Z,1.97
2019-01-13T04:42:12.707Z,1.99
2019-01-13T04:44:41.340Z,1.95
2019-01-13T04:47:10.018Z,1.98
2019-01-13T04:49:38.653Z,1.95
2019-01-13T04:52:07.288Z,1.93
2019-01-13T04:54:35.955Z,1.94
2019-01-13T04:57:05.132Z,1.91
2019-01-13T04:59:33.764Z,1.96
2019-01-13T05:02:02.415Z,1.94
2019-01-13T05:04:31.892Z,1.95
2019-01-13T05:07:00.593Z,1.97
2019-01-13T05:09:29.239Z,2.01
2019-01-13T05:11:57.883Z,1.99
2019-01-13T05:14:26.537Z,2.01
2019-01-13T05:16:55.494Z,1.96
2019-01-13T05:19:24.138Z,2.00
2019-01-13T05:21:52.762Z,2.03
2019-01-13T05:24:21.423Z,2.05
2019-01-13T05:26:50.057Z,2.08
2019-01-13T05:29:18.758Z,2.05
2019-01-13T05:31:47.755Z,2.11
2019-01-13T05:34:16.390Z,2.15
2019-01-13T05:36:45.022Z,2.11
2019-01-13T05:39:13.674Z,2.09
2019-01-13T05:41:42.572Z,2.10
2019-01-13T05:44:11.204Z,2.10
2019-01-13T05:46:39.857Z,2.14
2019-01-13T05:49:08.487Z,2.18
2019-01-13T05:51:37.228Z,2.17
2019-01-13T05:54:05.926Z,2.27
2019-01-13T05:56:34.606Z,2.30
2019-01-13T05:59:03.244Z,2.34
2019-01-13T06:01:31.888Z,2.30
2019-01-13T06:04:00.519Z,2.29
2019-01-13T06:06:29.155Z,2.38
2019-01-13T06:08:57.805Z,2.39
2019-01-13T06:11:26.439Z,2.36
2019-01-13T06:13:56.047Z,2.38
2019-01-13T06:16:24.691Z,2.37
2019-01-13T06:18:53.700Z,2.37
2019-01-13T06:21:22.333Z,2.34
2019-01-13T06:23:51.059Z,2.32
2019-01-13T06:26:20.023Z,2.39
2019-01-13T06:28:48.652Z,2.39
2019-01-13T06:31:17.675Z,2.36
2019-01-13T06:33:47.059Z,2.40
2019-01-13T06:36:15.809Z,2.40
2019-01-13T06:38:44.454Z,2.30
2019-01-13T06:41:13.090Z,2.32
2019-01-13T06:43:42.078Z,2.35
2019-01-13T06:46:10.738Z,2.35
2019-01-13T06:48:39.373Z,2.37
2019-01-13T06:51:08.340Z,2.37
2019-01-13T06:53:36.986Z,2.30
2019-01-13T06:56:05.623Z,2.35
2019-01-13T06:58:34.273Z,2.36
2019-01-13T07:01:03.082Z,2.38
2019-01-13T07:03:31.711Z,2.41
2019-01-13T07:06:00.366Z,2.41
2019-01-13T07:08:29.087Z,2.42
2019-01-13T07:10:57.771Z,2.43
2019-01-13T07:13:26.423Z,2.38
2019-01-13T07:15:55.044Z,2.43
2019-01-13T07:18:23.696Z,2.54
2019-01-13T07:20:52.335Z,2.50
2019-01-13T07:23:20.971Z,2.56
2019-01-13T07:25:49.695Z,2.61
2019-01-13T07:28:18.329Z,2.59
2019-01-13T07:30:46.978Z,2.65
2019-01-13T07:33:15.607Z,2.67
2019-01-13T07:35:44.251Z,2.69
2019-01-13T07:38:13.287Z,2.71
2019-01-13T07:40:41.929Z,2.72
2019-01-13T07:43:10.564Z,2.74
2019-01-13T07:45:39.209Z,2.73
2019-01-13T07:48:08.154Z,2.74
2019-01-13T07:50:36.786Z,2.84
2019-01-13T07:53:05.422Z,2.82
2019-01-13T07:55:34.062Z,2.80
2019-01-13T07:58:02.763Z,2.88
2019-01-13T08:00:32.092Z,2.83
2019-01-13T08:03:01.163Z,2.94
2019-01-13T08:05:29.879Z,2.96
2019-01-13T08:07:59.208Z,3.02
2019-01-13T08:10:28.022Z,3.01
2019-01-13T08:12:56.755Z,3.00
2019-01-13T08:15:25.707Z,3.06
2019-01-13T08:17:54.359Z,3.11
2019-01-13T08:20:23.945Z,3.18
2019-01-13T08:22:53.725Z,3.21
2019-01-13T08:25:23.465Z,3.19
2019-01-13T08:27:52.123Z,3.21
2019-01-13T08:30:20.990Z,3.17
2019-01-13T08:32:49.717Z,3.25
2019-01-13T08:35:18.795Z,3.20
2019-01-13T08:37:47.559Z,3.23
2019-01-13T08:40:17.269Z,3.24
2019-01-13T08:42:45.917Z,3.29
2019-01-13T08:45:15.919Z,3.33
2019-01-13T08:47:44.811Z,3.41
2019-01-13T08:50:20.179Z,3.44
2019-01-13T08:52:48.942Z,3.48
2019-01-13T08:55:18.728Z,3.50
2019-01-13T08:57:47.546Z,3.52
2019-01-13T09:00:17.602Z,3.49
2019-01-13T09:02:46.241Z,3.51
2019-01-13T09:05:15.325Z,3.56
2019-01-13T09:07:44.074Z,3.60
2019-01-13T09:10:14.000Z,3.63
2019-01-13T09:12:42.956Z,3.68
2019-01-13T09:15:12.902Z,3.65
2019-01-13T09:17:41.655Z,3.71
2019-01-13T09:20:12.044Z,3.80
2019-01-13T09:22:41.029Z,3.80
2019-01-13T09:25:09.696Z,3.86
2019-01-13T09:27:38.680Z,3.78
2019-01-13T09:30:09.899Z,3.85
2019-01-13T09:32:39.509Z,3.99
2019-01-13T09:35:08.851Z,3.98
2019-01-13T09:37:37.571Z,3.96
2019-01-13T09:40:06.449Z,3.94
2019-01-13T09:42:35.179Z,3.99
2019-01-13T09:45:04.419Z,3.92
2019-01-13T09:47:33.071Z,4.00
2019-01-13T09:50:01.702Z,4.06
2019-01-13T09:52:30.502Z,4.06
2019-01-13T09:54:59.214Z,4.08
2019-01-13T09:57:27.880Z,4.08
2019-01-13T09:59:56.540Z,4.13
2019-01-13T10:02:25.196Z,4.10
2019-01-13T10:04:54.533Z,4.10
2019-01-13T10:07:23.200Z,4.06
2019-01-13T10:09:52.026Z,4.09
2019-01-13T10:12:20.706Z,4.05
2019-01-13T10:14:49.364Z,4.10
2019-01-13T10:17:18.348Z,4.03
2019-01-13T10:19:47.021Z,4.07
2019-01-13T10:22:15.756Z,4.03
2019-01-13T10:24:44.847Z,4.06
2019-01-13T10:27:13.484Z,3.95
2019-01-13T10:29:42.154Z,3.98
2019-01-13T10:32:10.807Z,3.92
2019-01-13T10:34:39.535Z,3.85
2019-01-13T10:37:08.299Z,3.82
2019-01-13T10:39:37.293Z,3.78
2019-01-13T10:42:06.014Z,3.64
2019-01-13T10:44:34.703Z,3.60
2019-01-13T10:47:03.398Z,3.62
2019-01-13T10:49:32.040Z,3.65
2019-01-13T10:52:00.687Z,3.71
2019-01-13T10:54:30.697Z,3.62
2019-01-13T10:57:00.397Z,3.65
2019-01-13T10:59:29.155Z,3.71
2019-01-13T11:01:57.884Z,3.78
2019-01-13T11:04:26.546Z,3.70
2019-01-13T11:06:55.507Z,3.77
2019-01-13T11:09:24.127Z,3.75
2019-01-13T11:11:52.776Z,3.77
2019-01-13T11:14:21.440Z,3.81
2019-01-13T11:16:50.080Z,3.83
2019-01-13T11:19:19.044Z,3.90
2019-01-13T11:21:47.698Z,3.89
2019-01-13T11:24:16.332Z,3.87
2019-01-13T11:26:46.058Z,3.94
2019-01-13T11:29:14.772Z,3.99
2019-01-13T11:31:43.456Z,4.01
2019-01-13T11:34:12.334Z,4.00
2019-01-13T11:36:40.997Z,4.03
2019-01-13T11:39:10.885Z,4.08
2019-01-13T11:41:39.503Z,4.02
2019-01-13T11:44:08.254Z,3.95
2019-01-13T11:46:36.921Z,3.91
2019-01-13T11:49:05.573Z,3.95
2019-01-13T11:51:34.375Z,3.91
2019-01-13T11:54:03.123Z,3.98
2019-01-13T11:56:32.100Z,3.99
2019-01-13T11:59:00.848Z,3.99
2019-01-13T12:01:29.822Z,3.88
2019-01-13T12:03:58.744Z,3.83
2019-01-13T12:06:27.400Z,3.82
2019-01-13T12:08:56.139Z,3.77
2019-01-13T12:11:24.776Z,3.84
2019-01-13T12:13:53.473Z,3.81
2019-01-13T12:16:22.118Z,3.79
2019-01-13T12:18:50.760Z,3.88
2019-01-13T12:21:19.605Z,3.88
2019-01-13T12:23:48.236Z,3.97
2019-01-13T12:26:16.888Z,3.95
2019-01-13T12:28:45.540Z,3.85
2019-01-13T12:31:14.196Z,3.88
2019-01-13T12:33:42.867Z,3.96
2019-01-13T12:36:11.906Z,3.95
2019-01-13T12:38:40.622Z,3.94
2019-01-13T12:41:09.285Z,3.82
2019-01-13T12:43:37.964Z,3.78
2019-01-13T12:46:07.019Z,3.65
2019-01-13T12:48:35.688Z,3.75
2019-01-13T12:51:04.451Z,3.64
2019-01-13T12:53:33.219Z,3.65
2019-01-13T12:56:02.127Z,3.56
2019-01-13T12:58:31.759Z,3.52
2019-01-13T13:01:00.815Z,3.48
2019-01-13T13:03:31.845Z,3.55
2019-01-13T13:05:59.967Z,3.49
2019-01-13T13:08:29.042Z,3.48
2019-01-13T13:10:57.793Z,3.39
2019-01-13T13:13:26.525Z,3.35
2019-01-13T13:15:55.443Z,3.23
2019-01-13T13:18:24.286Z,3.26
2019-01-13T13:20:52.986Z,3.24
2019-01-13T13:23:21.644Z,3.17
2019-01-13T13:25:50.446Z,3.11
2019-01-13T13:28:19.187Z,3.08
2019-01-13T13:30:47.976Z,3.07
2019-01-13T13:33:16.615Z,3.01
2019-01-13T13:35:45.684Z,2.92
2019-01-13T13:38:14.332Z,2.91
2019-01-13T13:40:42.976Z,2.82
2019-01-13T13:43:12.029Z,2.78
2019-01-13T13:45:40.715Z,2.76
2019-01-13T13:48:09.439Z,2.74
2019-01-13T13:50:38.201Z,2.71
2019-01-13T13:53:07.015Z,2.62
2019-01-13T13:55:36.031Z,2.62
2019-01-13T13:58:05.135Z,2.52
2019-01-13T14:00:34.569Z,2.47
2019-01-13T14:03:03.434Z,2.43
2019-01-13T14:05:32.153Z,2.40
2019-01-13T14:08:01.078Z,2.40
2019-01-13T14:10:31.262Z,2.34
2019-01-13T14:13:00.364Z,2.37
2019-01-13T14:15:29.007Z,2.27
2019-01-13T14:17:57.706Z,2.28
2019-01-13T14:20:26.466Z,2.28
2019-01-13T14:22:55.104Z,2.23
2019-01-13T14:25:23.822Z,2.28
2019-01-13T14:27:52.472Z,2.29
2019-01-13T14:30:22.294Z,2.33
2019-01-13T14:32:50.935Z,2.32
2019-01-13T14:35:19.713Z,2.42
2019-01-13T14:37:48.663Z,2.45
2019-01-13T14:40:20.293Z,2.51
2019-01-13T14:42:49.241Z,2.54
2019-01-13T14:45:18.835Z,2.55
2019-01-13T14:47:47.551Z,2.56
2019-01-13T14:50:17.348Z,2.56
2019-01-13T14:52:46.943Z,2.57
2019-01-13T14:55:15.831Z,2.57
2019-01-13T14:57:44.574Z,2.61
2019-01-13T15:00:14.911Z,2.61
2019-01-13T15:02:46.651Z,2.64
2019-01-13T15:05:18.063Z,2.61
2019-01-13T15:07:46.783Z,2.63
2019-01-13T15:10:15.552Z,2.66
2019-01-13T15:12:44.187Z,2.70
2019-01-13T15:15:13.130Z,2.71
2019-01-13T15:17:41.845Z,2.69
2019-01-13T15:20:12.102Z,2.69
2019-01-13T15:22:41.796Z,2.70
2019-01-13T15:25:11.602Z,2.79
2019-01-13T15:27:40.364Z,2.75
2019-01-13T15:30:13.912Z,2.81
2019-01-13T15:32:42.624Z,2.82
2019-01-13T15:35:11.359Z,2.83
2019-01-13T15:37:40.009Z,2.87
2019-01-13T15:40:10.281Z,2.88
2019-01-13T15:42:38.999Z,2.92
2019-01-13T15:45:08.259Z,2.95
2019-01-13T15:47:36.959Z,2.93
2019-01-13T15:50:06.671Z,2.93
2019-01-13T15:52:35.443Z,2.96
2019-01-13T15:55:04.795Z,2.95
2019-01-13T15:57:33.776Z,2.94
2019-01-13T16:00:02.505Z,2.97
2019-01-13T16:02:32.929Z,2.97
2019-01-13T16:05:02.350Z,2.99
2019-01-13T16:07:31.015Z,3.07
2019-01-13T16:09:59.703Z,3.06
2019-01-13T16:12:28.355Z,3.12
2019-01-13T16:14:56.984Z,3.15
2019-01-13T16:17:25.695Z,3.15
2019-01-13T16:19:54.368Z,3.11
2019-01-13T16:22:23.446Z,3.20
2019-01-13T16:24:52.074Z,3.19
2019-01-13T16:27:20.900Z,3.18
2019-01-13T16:29:49.696Z,3.19
2019-01-13T16:32:18.448Z,3.20
2019-01-13T16:34:47.222Z,3.22
2019-01-13T16:37:15.868Z,3.25
2019-01-13T16:39:44.605Z,3.26
2019-01-13T16:42:14.854Z,3.28
2019-01-13T16:44:44.562Z,3.30
2019-01-13T16:47:13.200Z,3.29
2019-01-13T16:49:41.860Z,3.31
2019-01-13T16:52:10.522Z,3.33
2019-01-13T16:54:39.165Z,3.34
2019-01-13T16:57:07.838Z,3.35
2019-01-13T16:59:36.491Z,3.38
2019-01-13T17:02:05.135Z,3.44
2019-01-13T17:04:34.022Z,3.45
2019-01-13T17:07:02.875Z,3.44
2019-01-13T17:09:31.512Z,3.49
2019-01-13T17:12:00.537Z,3.55
2019-01-13T17:14:30.361Z,3.56
2019-01-13T17:16:59.023Z,3.60
2019-01-13T17:19:27.770Z,3.61
2019-01-13T17:21:56.447Z,3.64
2019-01-13T17:24:25.095Z,3.63
2019-01-13T17:26:53.757Z,3.66
2019-01-13T17:29:22.735Z,3.66
2019-01-13T17:31:51.707Z,3.67
2019-01-13T17:34:20.453Z,3.74
2019-01-13T17:36:49.114Z,3.80
2019-01-13T17:39:18.870Z,3.80
2019-01-13T17:41:47.514Z,3.86
2019-01-13T17:44:16.548Z,3.93
2019-01-13T17:46:45.198Z,3.95
2019-01-13T17:49:13.870Z,3.95
2019-01-13T17:51:42.527Z,4.02
2019-01-13T17:54:11.162Z,4.03
2019-01-13T17:56:39.848Z,4.08
2019-01-13T17:59:08.491Z,4.13
2019-01-13T18:01:39.623Z,4.17
2019-01-13T18:04:08.290Z,4.24
2019-01-13T18:06:36.948Z,4.21
2019-01-13T18:09:07.390Z,4.28
2019-01-13T18:11:36.158Z,4.33
2019-01-13T18:14:05.112Z,4.37
2019-01-13T18:16:33.831Z,4.38
2019-01-13T18:19:02.748Z,4.44
2019-01-13T18:21:32.671Z,4.47
2019-01-13T18:24:01.492Z,4.49
2019-01-13T18:26:30.200Z,4.49
2019-01-13T18:28:58.919Z,4.52
2019-01-13T18:31:27.691Z,4.55
2019-01-13T18:33:56.344Z,4.57
2019-01-13T18:36:28.253Z,4.60
2019-01-13T18:38:57.219Z,4.60
2019-01-13T18:41:25.971Z,4.63
2019-01-13T18:43:54.643Z,4.62
2019-01-13T18:46:23.479Z,4.66
2019-01-13T18:48:52.300Z,4.72
2019-01-13T18:51:20.950Z,4.69
2019-01-13T18:53:50.879Z,4.75
2019-01-13T18:56:19.602Z,4.76
2019-01-13T18:58:48.276Z,4.77
2019-01-13T19:01:16.966Z,4.76
2019-01-13T19:03:46.444Z,4.76
2019-01-13T19:06:15.090Z,4.81
2019-01-13T19:08:43.766Z,4.84
2019-01-13T19:11:16.248Z,4.84
2019-01-13T19:14:08.084Z,4.84
2019-01-13T19:16:39.272Z,4.85
2019-01-13T19:19:07.954Z,4.83
2019-01-13T19:21:36.588Z,4.86
2019-01-13T19:24:05.244Z,4.88
2019-01-13T19:26:34.151Z,4.85
2019-01-13T19:29:02.817Z,4.90
2019-01-13T19:31:31.499Z,4.91
2019-01-13T19:34:01.356Z,4.90
2019-01-13T19:36:31.191Z,4.91
2019-01-13T19:38:59.901Z,4.92
2019-01-13T19:41:28.879Z,4.92
2019-01-13T19:43:57.511Z,4.99
2019-01-13T19:46:27.199Z,4.97
2019-01-13T19:48:56.234Z,5.02
2019-01-13T19:51:24.967Z,5.08
2019-01-13T19:53:53.627Z,5.08
2019-01-13T19:56:22.366Z,5.11
2019-01-13T19:58:51.118Z,5.09
2019-01-13T20:01:19.761Z,5.11
2019-01-13T20:03:48.494Z,5.14
2019-01-13T20:06:17.747Z,5.15
2019-01-13T20:08:47.836Z,5.12
2019-01-13T20:11:16.732Z,5.12
2019-01-13T20:13:46.057Z,5.18
2019-01-13T20:16:15.614Z,5.19
2019-01-13T20:18:44.284Z,5.19
2019-01-13T20:21:13.184Z,5.21
2019-01-13T20:23:42.521Z,5.24
2019-01-13T20:26:11.459Z,5.23
2019-01-13T20:28:40.545Z,5.29
2019-01-13T20:31:09.607Z,5.30
2019-01-13T20:33:38.915Z,5.34
2019-01-13T20:36:08.358Z,5.30
2019-01-13T20:38:37.116Z,5.36
2019-01-13T20:41:06.314Z,5.35
2019-01-13T20:43:34.979Z,5.34
2019-01-13T20:46:03.710Z,5.34
2019-01-13T20:48:33.455Z,5.36
2019-01-13T20:51:02.178Z,5.38
2019-01-13T20:53:31.120Z,5.37
2019-01-13T20:55:59.954Z,5.37
2019-01-13T20:58:28.703Z,5.35
2019-01-13T21:00:57.512Z,5.29
2019-01-13T21:03:26.520Z,5.26
2019-01-13T21:05:55.212Z,5.23
2019-01-13T21:08:24.305Z,5.22
2019-01-13T21:10:53.080Z,5.24
2019-01-13T21:13:22.253Z,5.22
2019-01-13T21:15:50.933Z,5.20
2019-01-13T21:18:19.614Z,5.19
2019-01-13T21:20:48.349Z,5.23
2019-01-13T21:23:18.608Z,5.27
2019-01-13T21:25:47.321Z,5.28
2019-01-13T21:28:16.343Z,5.32
2019-01-13T21:30:45.103Z,5.31
2019-01-13T21:33:13.825Z,5.28
2019-01-13T21:35:42.599Z,5.28
2019-01-13T21:38:11.733Z,5.28
2019-01-13T21:40:40.802Z,5.34
2019-01-13T21:43:09.679Z,5.33
2019-01-13T21:45:38.559Z,5.31
2019-01-13T21:48:07.361Z,5.26
2019-01-13T21:50:36.672Z,5.24
2019-01-13T21:53:05.336Z,5.27
2019-01-13T21:55:34.239Z,5.29
2019-01-13T21:58:03.056Z,5.27
2019-01-13T22:00:31.902Z,5.29
2019-01-13T22:03:00.700Z,5.30
2019-01-13T22:05:29.575Z,5.32
2019-01-13T22:07:58.226Z,5.37
2019-01-13T22:10:28.034Z,5.44
2019-01-13T22:12:56.819Z,5.42
2019-01-13T22:15:25.564Z,5.41
2019-01-13T22:17:54.227Z,5.45
2019-01-13T22:20:22.981Z,5.46
2019-01-13T22:22:51.841Z,5.47
2019-01-13T22:25:21.504Z,5.48
2019-01-13T22:27:50.180Z,5.49
2019-01-13T22:30:19.828Z,5.49
2019-01-13T22:32:48.802Z,5.52
2019-01-13T22:35:17.544Z,5.50
2019-01-13T22:37:46.279Z,5.51
2019-01-13T22:40:15.602Z,5.48
2019-01-13T22:42:44.335Z,5.51
2019-01-13T22:45:14.105Z,5.52
2019-01-13T22:47:42.833Z,5.53
2019-01-13T22:50:12.873Z,5.49
2019-01-13T22:52:41.544Z,5.53
2019-01-13T22:55:10.455Z,5.52
2019-01-13T22:57:39.100Z,5.54
2019-01-13T23:00:20.174Z,5.48
2019-01-13T23:02:50.175Z,5.46
2019-01-13T23:05:19.066Z,5.41
2019-01-13T23:07:47.750Z,5.42
2019-01-13T23:10:16.403Z,5.44
2019-01-13T23:12:45.045Z,5.43
2019-01-13T23:15:13.706Z,5.43
2019-01-13T23:17:42.350Z,5.45
2019-01-13T23:20:11.072Z,5.40
2019-01-13T23:22:39.734Z,5.36
2019-01-13T23:25:08.380Z,5.31
2019-01-13T23:27:37.036Z,5.30
2019-01-13T23:30:05.954Z,5.35
2019-01-13T23:32:34.663Z,5.41
2019-01-13T23:35:03.322Z,5.41
2019-01-13T23:37:32.055Z,5.39
2019-01-13T23:40:00.692Z,5.37
2019-01-13T23:42:29.417Z,5.34
2019-01-13T23:44:58.147Z,5.34
2019-01-13T23:47:26.831Z,5.36
2019-01-13T23:49:55.499Z,5.40
2019-01-13T23:52:24.159Z,5.46
2019-01-13T23:54:52.803Z,5.46
2019-01-13T23:57:21.434Z,5.40
2019-01-13T23:59:50.179Z,5.33
